createdAt,value
2018-11-25T00:01:32.512Z,10.28
2018-11-25T00:03:36.571Z,13.77
2018-11-25T00:05:40.695Z,16.73
2018-11-25T00:07:44.803Z,7.93
2018-11-25T00:09:48.876Z,8.18
2018-11-25T00:11:52.907Z,8.07
2018-11-25T00:13:58.163Z,13.62
2018-11-25T00:16:02.180Z,7.17
2018-11-25T00:18:06.551Z,7.40
2018-11-25T00:20:13.426Z,7.60
2018-11-25T00:22:18.142Z,5.33
2018-11-25T00:24:22.150Z,8.27
2018-11-25T00:26:26.174Z,7.10
2018-11-25T00:28:30.376Z,4.80
2018-11-25T00:30:34.430Z,4.70
2018-11-25T00:32:38.628Z,5.23
2018-11-25T00:34:43.120Z,6.05
2018-11-25T00:36:47.139Z,4.93
2018-11-25T00:38:51.234Z,4.47
2018-11-25T00:40:55.255Z,4.33
2018-11-25T00:42:59.288Z,4.10
2018-11-25T00:45:03.328Z,4.40
2018-11-25T00:47:07.331Z,4.00
2018-11-25T00:49:11.423Z,4.60
2018-11-25T00:51:15.463Z,4.67
2018-11-25T00:53:19.459Z,4.47
2018-11-25T00:55:23.504Z,4.95
2018-11-25T00:57:27.509Z,4.33
2018-11-25T00:59:31.585Z,4.37
2018-11-25T01:01:35.589Z,5.78
2018-11-25T01:03:39.616Z,4.77
2018-11-25T01:05:43.634Z,4.57
2018-11-25T01:07:47.663Z,3.90
2018-11-25T01:09:51.708Z,4.28
2018-11-25T01:11:55.735Z,4.03
2018-11-25T01:13:59.753Z,4.33
2018-11-25T01:16:03.876Z,4.13
2018-11-25T01:18:07.928Z,4.33
2018-11-25T01:20:21.277Z,4.62
2018-11-25T01:22:25.303Z,5.20
2018-11-25T01:24:29.306Z,5.65
2018-11-25T01:26:33.321Z,7.17
2018-11-25T01:28:37.366Z,6.03
2018-11-25T01:30:41.397Z,8.30
2018-11-25T01:32:45.428Z,5.50
2018-11-25T01:34:49.503Z,6.87
2018-11-25T01:36:53.551Z,8.63
2018-11-25T01:38:57.588Z,8.07
2018-11-25T01:41:01.605Z,6.97
2018-11-25T01:43:05.871Z,9.48
2018-11-25T01:45:11.736Z,10.27
2018-11-25T01:47:15.776Z,11.80
2018-11-25T01:49:19.774Z,12.23
2018-11-25T01:51:23.955Z,10.68
2018-11-25T01:53:27.989Z,10.60
2018-11-25T01:55:32.024Z,12.60
2018-11-25T01:57:36.154Z,11.87
2018-11-25T01:59:40.216Z,12.25
2018-11-25T02:01:46.265Z,12.57
2018-11-25T02:03:51.096Z,12.43
2018-11-25T02:05:56.371Z,12.13
2018-11-25T02:08:02.346Z,14.90
2018-11-25T02:10:10.226Z,13.07
2018-11-25T02:12:14.670Z,14.15
2018-11-25T02:14:18.874Z,13.03
2018-11-25T02:16:22.971Z,14.07
2018-11-25T02:18:27.103Z,14.03
2018-11-25T02:20:31.144Z,12.85
2018-11-25T02:22:35.257Z,12.00
2018-11-25T02:24:39.275Z,11.93
2018-11-25T02:26:43.290Z,12.27
2018-11-25T02:28:47.347Z,12.73
2018-11-25T02:30:51.372Z,12.50
2018-11-25T02:32:55.355Z,10.40
2018-11-25T02:34:59.386Z,11.47
2018-11-25T02:37:03.381Z,9.63
2018-11-25T02:39:09.312Z,12.00
2018-11-25T02:41:13.339Z,10.03
2018-11-25T02:43:17.361Z,10.70
2018-11-25T02:45:21.472Z,10.20
2018-11-25T02:47:25.482Z,12.18
2018-11-25T02:49:29.604Z,11.55
2018-11-25T02:51:33.629Z,11.13
2018-11-25T02:53:37.661Z,13.30
2018-11-25T02:55:41.704Z,12.97
2018-11-25T02:57:45.719Z,11.93
2018-11-25T02:59:49.804Z,14.60
2018-11-25T03:01:58.641Z,12.23
2018-11-25T03:04:02.692Z,10.93
2018-11-25T03:06:06.723Z,13.83
2018-11-25T03:08:10.856Z,12.60
2018-11-25T03:10:14.955Z,13.03
2018-11-25T03:12:18.960Z,11.40
2018-11-25T03:14:22.984Z,11.28
2018-11-25T03:16:27.080Z,13.00
2018-11-25T03:18:31.066Z,11.40
2018-11-25T03:20:35.093Z,12.27
2018-11-25T03:22:39.200Z,11.63
2018-11-25T03:24:43.232Z,12.30
2018-11-25T03:26:47.334Z,15.27
2018-11-25T03:28:51.450Z,11.03
2018-11-25T03:30:55.447Z,12.13
2018-11-25T03:32:59.489Z,13.13
2018-11-25T03:35:03.520Z,12.77
2018-11-25T03:37:07.545Z,13.23
2018-11-25T03:39:11.562Z,12.50
2018-11-25T03:41:15.640Z,15.87
2018-11-25T03:43:19.649Z,12.98
2018-11-25T03:45:23.695Z,11.77
2018-11-25T03:47:27.711Z,18.50
2018-11-25T03:49:31.739Z,13.70
2018-11-25T03:51:35.768Z,11.93
2018-11-25T03:53:39.925Z,12.30
2018-11-25T03:55:43.960Z,13.30
2018-11-25T03:57:47.982Z,12.58
2018-11-25T03:59:52.110Z,12.77
2018-11-25T04:01:56.216Z,11.73
2018-11-25T04:04:00.624Z,10.03
2018-11-25T04:06:05.081Z,13.23
2018-11-25T04:08:09.095Z,12.23
2018-11-25T04:10:16.195Z,12.43
2018-11-25T04:12:20.316Z,12.37
2018-11-25T04:14:24.321Z,11.25
2018-11-25T04:16:28.523Z,11.50
2018-11-25T04:18:32.525Z,11.03
2018-11-25T04:20:36.528Z,14.53
2018-11-25T04:22:40.578Z,11.40
2018-11-25T04:24:44.588Z,13.67
2018-11-25T04:26:48.698Z,12.50
2018-11-25T04:28:52.730Z,10.20
2018-11-25T04:30:56.745Z,13.50
2018-11-25T04:33:00.810Z,12.73
2018-11-25T04:35:05.362Z,10.93
2018-11-25T04:37:09.369Z,11.40
2018-11-25T04:39:13.467Z,12.43
2018-11-25T04:41:17.475Z,12.77
2018-11-25T04:43:21.517Z,14.47
2018-11-25T04:45:25.603Z,12.93
2018-11-25T04:47:29.629Z,12.13
2018-11-25T04:49:33.719Z,11.50
2018-11-25T04:51:37.741Z,12.47
2018-11-25T04:53:41.771Z,12.40
2018-11-25T04:55:45.776Z,12.33
2018-11-25T04:57:50.415Z,12.83
2018-11-25T04:59:54.432Z,12.60
2018-11-25T05:01:58.498Z,11.73
2018-11-25T05:04:02.514Z,13.17
2018-11-25T05:06:06.775Z,14.47
2018-11-25T05:08:10.934Z,11.40
2018-11-25T05:10:16.444Z,14.63
2018-11-25T05:12:20.459Z,10.67
2018-11-25T05:14:24.511Z,15.95
2018-11-25T05:16:28.529Z,11.80
2018-11-25T05:18:32.635Z,12.33
2018-11-25T05:20:36.691Z,11.93
2018-11-25T05:22:40.770Z,11.77
2018-11-25T05:24:44.867Z,13.13
2018-11-25T05:26:48.875Z,11.83
2018-11-25T05:28:52.960Z,12.47
2018-11-25T05:30:57.142Z,11.50
2018-11-25T05:33:01.336Z,12.50
2018-11-25T05:35:07.407Z,14.20
2018-11-25T05:37:11.422Z,18.23
2018-11-25T05:39:15.510Z,16.97
2018-11-25T05:41:19.695Z,16.87
2018-11-25T05:43:23.718Z,18.55
2018-11-25T05:45:27.776Z,19.93
2018-11-25T05:47:31.921Z,20.62
2018-11-25T05:49:36.778Z,21.07
2018-11-25T05:51:39.991Z,23.43
2018-11-25T05:53:44.014Z,21.27
2018-11-25T05:55:48.068Z,24.83
2018-11-25T05:57:52.373Z,23.90
2018-11-25T05:59:56.467Z,29.03
2018-11-25T06:02:01.459Z,27.60
2018-11-25T06:04:05.668Z,33.03
2018-11-25T06:06:09.743Z,32.07
2018-11-25T06:08:13.909Z,29.23
2018-11-25T06:10:17.987Z,30.57
2018-11-25T06:12:22.120Z,29.33
2018-11-25T06:14:26.278Z,29.67
2018-11-25T06:16:30.395Z,27.93
2018-11-25T06:18:34.428Z,28.27
2018-11-25T06:20:38.448Z,33.07
2018-11-25T06:22:42.606Z,27.43
2018-11-25T06:24:46.820Z,33.90
2018-11-25T06:26:50.879Z,30.90
2018-11-25T06:28:55.048Z,34.77
2018-11-25T06:30:59.056Z,36.53
2018-11-25T06:33:03.080Z,36.43
2018-11-25T06:35:09.108Z,42.67
2018-11-25T06:37:13.233Z,36.63
2018-11-25T06:39:17.327Z,30.00
2018-11-25T06:41:21.349Z,42.03
2018-11-25T06:43:25.463Z,30.37
2018-11-25T06:45:30.796Z,36.65
2018-11-25T06:47:34.819Z,27.37
2018-11-25T06:49:38.851Z,25.50
2018-11-25T06:51:42.839Z,28.90
2018-11-25T06:53:46.927Z,28.50
2018-11-25T06:55:50.996Z,30.67
2018-11-25T06:57:55.056Z,26.13
2018-11-25T06:59:59.071Z,34.20
2018-11-25T07:02:03.128Z,25.23
2018-11-25T07:04:07.248Z,29.77
2018-11-25T07:06:11.252Z,33.13
2018-11-25T07:08:15.331Z,31.07
2018-11-25T07:10:20.657Z,30.33
2018-11-25T07:12:24.756Z,29.25
2018-11-25T07:14:28.826Z,26.77
2018-11-25T07:16:32.834Z,38.88
2018-11-25T07:18:36.968Z,47.87
2018-11-25T07:20:40.992Z,38.10
2018-11-25T07:22:45.055Z,26.53
2018-11-25T07:24:49.048Z,26.17
2018-11-25T07:26:53.099Z,27.97
2018-11-25T07:28:57.107Z,30.07
2018-11-25T07:31:01.140Z,28.13
2018-11-25T07:33:05.376Z,28.67
2018-11-25T07:35:09.454Z,27.10
2018-11-25T07:37:13.540Z,27.93
2018-11-25T07:39:17.875Z,26.43
2018-11-25T07:41:22.044Z,23.60
2018-11-25T07:43:26.052Z,23.92
2018-11-25T07:45:30.967Z,24.92
2018-11-25T07:47:34.355Z,25.17
2018-11-25T07:49:38.382Z,24.57
2018-11-25T07:51:42.423Z,26.20
2018-11-25T07:53:46.452Z,24.60
2018-11-25T07:55:50.495Z,25.17
2018-11-25T07:57:58.217Z,25.97
2018-11-25T08:00:02.237Z,28.03
2018-11-25T08:02:07.064Z,24.73
2018-11-25T08:04:11.113Z,28.47
2018-11-25T08:06:15.290Z,23.83
2018-11-25T08:08:19.317Z,29.37
2018-11-25T08:10:23.354Z,26.53
2018-11-25T08:12:27.494Z,27.98
2018-11-25T08:14:31.522Z,27.37
2018-11-25T08:16:35.628Z,22.10
2018-11-25T08:18:39.706Z,27.70
2018-11-25T08:20:43.855Z,19.87
2018-11-25T08:22:48.064Z,23.97
2018-11-25T08:24:52.120Z,23.73
2018-11-25T08:26:56.142Z,25.20
2018-11-25T08:29:00.329Z,25.03
2018-11-25T08:31:04.497Z,24.90
2018-11-25T08:33:08.490Z,21.33
2018-11-25T08:35:13.640Z,22.47
2018-11-25T08:37:17.660Z,23.27
2018-11-25T08:39:21.702Z,23.57
2018-11-25T08:41:25.846Z,25.80
2018-11-25T08:43:30.000Z,24.72
2018-11-25T08:45:34.022Z,20.87
2018-11-25T08:47:38.157Z,21.10
2018-11-25T08:49:42.306Z,20.63
2018-11-25T08:51:46.501Z,24.43
2018-11-25T08:53:50.612Z,25.17
2018-11-25T08:55:54.651Z,24.90
2018-11-25T08:57:58.689Z,28.93
2018-11-25T09:00:02.769Z,20.07
2018-11-25T09:02:07.539Z,21.50
2018-11-25T09:04:11.592Z,23.83
2018-11-25T09:06:15.679Z,20.87
2018-11-25T09:08:19.701Z,19.97
2018-11-25T09:10:23.789Z,22.77
2018-11-25T09:12:27.816Z,23.23
2018-11-25T09:14:31.872Z,20.43
2018-11-25T09:16:35.974Z,23.65
2018-11-25T09:18:40.214Z,21.83
2018-11-25T09:20:44.213Z,21.67
2018-11-25T09:22:48.371Z,19.90
2018-11-25T09:24:52.415Z,21.60
2018-11-25T09:26:56.500Z,22.73
2018-11-25T09:29:00.560Z,21.70
2018-11-25T09:31:04.611Z,21.53
2018-11-25T09:33:08.653Z,22.33
2018-11-25T09:35:12.692Z,20.37
2018-11-25T09:37:16.744Z,21.97
2018-11-25T09:39:20.803Z,23.47
2018-11-25T09:41:24.850Z,23.67
2018-11-25T09:43:28.897Z,22.30
2018-11-25T09:45:32.951Z,26.15
2018-11-25T09:47:37.015Z,22.77
2018-11-25T09:49:41.232Z,22.47
2018-11-25T09:51:45.301Z,26.63
2018-11-25T09:53:49.360Z,26.70
2018-11-25T09:55:53.721Z,26.50
2018-11-25T09:57:59.623Z,24.87
2018-11-25T10:00:04.062Z,25.63
2018-11-25T10:02:08.324Z,23.93
2018-11-25T10:04:12.532Z,24.37
2018-11-25T10:06:16.545Z,24.40
2018-11-25T10:08:20.603Z,29.07
2018-11-25T10:10:25.557Z,30.70
2018-11-25T10:12:29.576Z,26.40
2018-11-25T10:14:33.588Z,22.47
2018-11-25T10:16:37.897Z,18.25
2018-11-25T10:18:41.908Z,20.43
2018-11-25T10:20:45.975Z,16.87
2018-11-25T10:22:50.302Z,18.20
2018-11-25T10:24:54.470Z,19.93
2018-11-25T10:26:58.614Z,20.23
2018-11-25T10:29:02.622Z,19.40
2018-11-25T10:31:06.950Z,20.43
2018-11-25T10:33:10.967Z,19.27
2018-11-25T10:35:15.041Z,19.17
2018-11-25T10:37:19.988Z,16.53
2018-11-25T10:39:24.024Z,18.80
2018-11-25T10:41:28.124Z,20.07
2018-11-25T10:43:32.248Z,21.93
2018-11-25T10:45:36.357Z,20.30
2018-11-25T10:47:40.597Z,17.43
2018-11-25T10:49:44.616Z,20.23
2018-11-25T10:51:49.786Z,16.97
2018-11-25T10:53:53.847Z,20.97
2018-11-25T10:55:57.876Z,17.73
2018-11-25T10:58:02.005Z,16.50
2018-11-25T11:00:19.759Z,17.53
2018-11-25T11:02:29.161Z,16.47
2018-11-25T11:04:38.499Z,16.13
2018-11-25T11:06:47.913Z,16.47
2018-11-25T11:08:51.919Z,19.83
2018-11-25T11:10:55.959Z,15.27
2018-11-25T11:13:00.002Z,17.13
2018-11-25T11:15:06.457Z,17.00
2018-11-25T11:17:10.511Z,19.03
2018-11-25T11:19:14.615Z,16.87
2018-11-25T11:21:18.670Z,19.43
2018-11-25T11:23:22.688Z,18.27
2018-11-25T11:25:26.713Z,16.95
2018-11-25T11:27:30.798Z,17.60
2018-11-25T11:29:34.819Z,17.95
2018-11-25T11:31:38.843Z,21.83
2018-11-25T11:33:42.967Z,19.93
2018-11-25T11:35:46.994Z,20.23
2018-11-25T11:37:51.127Z,19.73
2018-11-25T11:39:55.149Z,21.70
2018-11-25T11:41:59.189Z,18.90
2018-11-25T11:44:03.251Z,17.33
2018-11-25T11:46:07.267Z,21.63
2018-11-25T11:48:11.340Z,21.30
2018-11-25T11:50:17.256Z,20.40
2018-11-25T11:52:21.297Z,21.13
2018-11-25T11:54:25.339Z,19.80
2018-11-25T11:56:29.368Z,20.00
2018-11-25T11:58:33.575Z,23.03
2018-11-25T12:00:37.632Z,20.27
2018-11-25T12:02:41.652Z,23.73
2018-11-25T12:04:45.728Z,24.53
2018-11-25T12:06:49.937Z,23.03
2018-11-25T12:08:53.972Z,23.43
2018-11-25T12:10:58.000Z,24.50
2018-11-25T12:13:02.100Z,25.83
2018-11-25T12:15:30.662Z,24.73
2018-11-25T12:17:33.280Z,22.65
2018-11-25T12:19:37.288Z,22.90
2018-11-25T12:21:41.312Z,31.03
2018-11-25T12:23:45.395Z,29.30
2018-11-25T12:25:49.495Z,27.43
2018-11-25T12:27:53.651Z,23.57
2018-11-25T12:29:57.779Z,26.37
2018-11-25T12:32:01.896Z,28.43
2018-11-25T12:34:05.941Z,28.13
2018-11-25T12:36:10.074Z,27.53
2018-11-25T12:38:14.209Z,26.07
2018-11-25T12:40:20.670Z,26.47
2018-11-25T12:42:24.696Z,26.97
2018-11-25T12:44:29.300Z,27.53
2018-11-25T12:46:32.840Z,29.37
2018-11-25T12:48:36.870Z,24.00
2018-11-25T12:50:41.004Z,24.03
2018-11-25T12:52:45.171Z,26.10
2018-11-25T12:54:49.192Z,24.53
2018-11-25T12:56:53.226Z,22.87
2018-11-25T12:58:57.264Z,26.00
2018-11-25T13:01:01.316Z,23.00
2018-11-25T13:03:06.404Z,21.97
2018-11-25T13:05:10.465Z,18.57
2018-11-25T13:07:14.475Z,22.27
2018-11-25T13:09:18.491Z,19.70
2018-11-25T13:11:22.559Z,20.23
2018-11-25T13:13:26.572Z,20.00
2018-11-25T13:15:30.798Z,20.35
2018-11-25T13:17:34.939Z,16.87
2018-11-25T13:19:38.961Z,17.43
2018-11-25T13:21:42.980Z,16.23
2018-11-25T13:23:47.025Z,16.97
2018-11-25T13:25:51.044Z,18.13
2018-11-25T13:27:55.580Z,16.93
2018-11-25T13:29:59.599Z,16.97
2018-11-25T13:32:03.604Z,15.70
2018-11-25T13:34:08.351Z,17.17
2018-11-25T13:36:12.380Z,12.27
2018-11-25T13:38:16.490Z,13.28
2018-11-25T13:40:20.504Z,16.30
2018-11-25T13:42:24.526Z,14.70
2018-11-25T13:44:28.573Z,12.93
2018-11-25T13:46:32.698Z,12.65
2018-11-25T13:48:36.795Z,11.28
2018-11-25T13:50:40.796Z,12.40
2018-11-25T13:52:44.868Z,13.07
2018-11-25T13:54:49.424Z,12.03
2018-11-25T13:56:53.648Z,11.13
2018-11-25T13:58:57.676Z,13.17
2018-11-25T14:01:01.855Z,13.37
2018-11-25T14:03:09.439Z,11.15
2018-11-25T14:05:17.803Z,10.40
2018-11-25T14:07:23.027Z,9.73
2018-11-25T14:09:28.762Z,10.78
2018-11-25T14:11:32.989Z,10.60
2018-11-25T14:13:36.907Z,11.55
2018-11-25T14:15:41.023Z,9.37
2018-11-25T14:17:45.029Z,9.75
2018-11-25T14:19:49.055Z,11.90
2018-11-25T14:21:53.167Z,10.57
2018-11-25T14:23:57.190Z,9.03
2018-11-25T14:26:06.675Z,10.10
2018-11-25T14:28:13.020Z,10.20
2018-11-25T14:30:21.533Z,10.57
2018-11-25T14:32:27.026Z,10.03
2018-11-25T14:34:31.139Z,10.13
2018-11-25T14:36:35.295Z,10.95
2018-11-25T14:38:39.440Z,9.28
2018-11-25T14:40:43.505Z,10.37
2018-11-25T14:42:47.695Z,10.43
2018-11-25T14:44:51.825Z,9.50
2018-11-25T14:46:55.908Z,8.60
2018-11-25T14:48:59.948Z,9.10
2018-11-25T14:51:03.983Z,10.40
2018-11-25T14:53:08.105Z,10.20
2018-11-25T14:55:13.846Z,9.67
2018-11-25T14:57:17.875Z,9.70
2018-11-25T14:59:21.864Z,9.50
2018-11-25T15:01:26.188Z,10.83
2018-11-25T15:03:30.314Z,11.43
2018-11-25T15:05:41.753Z,11.60
2018-11-25T15:07:45.892Z,10.98
2018-11-25T15:09:49.899Z,9.93
2018-11-25T15:11:53.952Z,11.30
2018-11-25T15:13:58.060Z,8.98
2018-11-25T15:16:03.350Z,12.07
2018-11-25T15:18:08.820Z,11.00
2018-11-25T15:20:13.539Z,11.43
2018-11-25T15:22:17.670Z,11.50
2018-11-25T15:24:21.748Z,11.27
2018-11-25T15:26:25.776Z,10.40
2018-11-25T15:28:29.811Z,12.98
2018-11-25T15:30:33.845Z,13.80
2018-11-25T15:32:38.012Z,14.45
2018-11-25T15:34:42.176Z,15.05
2018-11-25T15:36:46.230Z,12.10
2018-11-25T15:38:50.262Z,11.50
2018-11-25T15:40:54.448Z,10.17
2018-11-25T15:42:58.539Z,10.83
2018-11-25T15:45:02.569Z,11.73
2018-11-25T15:47:08.198Z,11.00
2018-11-25T15:49:11.623Z,12.17
2018-11-25T15:51:15.681Z,10.80
2018-11-25T15:53:19.705Z,11.83
2018-11-25T15:55:23.992Z,11.30
2018-11-25T15:57:28.070Z,13.57
2018-11-25T15:59:32.251Z,13.83
2018-11-25T16:03:37.137Z,13.63
2018-11-25T16:05:44.882Z,11.20
2018-11-25T16:07:49.049Z,12.07
2018-11-25T16:09:53.133Z,14.03
2018-11-25T16:11:57.241Z,16.87
2018-11-25T16:14:01.613Z,12.47
2018-11-25T16:16:05.680Z,13.60
2018-11-25T16:18:09.793Z,15.77
2018-11-25T16:20:15.746Z,12.50
2018-11-25T16:22:19.741Z,14.57
2018-11-25T16:26:31.309Z,14.37
2018-11-25T16:28:40.171Z,13.38
2018-11-25T16:30:45.301Z,13.80
2018-11-25T16:32:49.325Z,15.00
2018-11-25T16:34:53.492Z,12.70
2018-11-25T16:36:57.583Z,13.18
2018-11-25T16:39:01.860Z,13.83
2018-11-25T16:41:06.608Z,12.53
2018-11-25T16:43:10.616Z,13.23
2018-11-25T16:45:16.929Z,14.43
2018-11-25T16:47:20.997Z,16.97
2018-11-25T16:49:25.015Z,11.90
2018-11-25T16:51:29.023Z,18.57
2018-11-25T16:53:33.051Z,16.63
2018-11-25T16:55:37.074Z,13.73
2018-11-25T16:57:41.746Z,13.20
2018-11-25T16:59:45.910Z,14.30
2018-11-25T17:01:49.955Z,15.00
2018-11-25T17:03:54.090Z,15.35
2018-11-25T17:05:58.190Z,13.80
2018-11-25T17:08:08.752Z,16.57
2018-11-25T17:10:13.026Z,16.40
2018-11-25T17:12:17.200Z,14.50
2018-11-25T17:14:21.269Z,18.07
2018-11-25T17:16:25.316Z,15.93
2018-11-25T17:18:29.404Z,17.27
2018-11-25T17:20:33.649Z,17.80
2018-11-25T17:22:37.716Z,15.67
2018-11-25T17:24:41.821Z,14.67
2018-11-25T17:26:45.912Z,28.23
2018-11-25T17:28:50.068Z,19.67
2018-11-25T17:30:54.259Z,44.27
2018-11-25T17:32:58.286Z,27.27
2018-11-25T17:35:02.478Z,21.20
2018-11-25T17:37:06.496Z,19.20
2018-11-25T17:39:10.737Z,19.10
2018-11-25T17:41:14.771Z,17.93
2018-11-25T17:43:22.253Z,15.70
2018-11-25T17:45:26.291Z,15.40
2018-11-25T17:47:30.491Z,14.30
2018-11-25T17:49:34.568Z,15.60
2018-11-25T17:51:38.604Z,17.62
2018-11-25T17:53:42.632Z,18.47
2018-11-25T17:55:46.683Z,15.95
2018-11-25T17:57:50.695Z,15.00
2018-11-25T17:59:54.736Z,19.03
2018-11-25T18:01:58.779Z,21.68
2018-11-25T18:04:02.882Z,25.33
2018-11-25T18:06:07.400Z,20.73
2018-11-25T18:08:11.434Z,20.07
2018-11-25T18:10:15.455Z,18.40
2018-11-25T18:12:19.495Z,68.97
2018-11-25T18:14:23.616Z,31.07
2018-11-25T18:16:27.644Z,24.18
2018-11-25T18:19:37.315Z,20.87
2018-11-25T18:21:41.429Z,17.57
2018-11-25T18:23:45.737Z,20.15
2018-11-25T18:25:49.758Z,20.27
2018-11-25T18:28:00.298Z,17.30
2018-11-25T18:29:58.084Z,18.70
2018-11-25T18:32:02.308Z,20.00
2018-11-25T18:34:06.605Z,16.47
2018-11-25T18:36:13.183Z,16.60
2018-11-25T18:38:17.320Z,15.60
2018-11-25T18:40:21.355Z,15.47
2018-11-25T18:42:25.416Z,15.13
2018-11-25T18:44:29.551Z,14.07
2018-11-25T18:46:33.640Z,15.93
2018-11-25T18:48:41.551Z,15.07
2018-11-25T18:50:45.775Z,13.10
2018-11-25T18:52:52.191Z,16.13
2018-11-25T18:54:54.765Z,14.30
2018-11-25T18:56:58.821Z,14.73
2018-11-25T18:59:03.132Z,15.88
2018-11-25T19:03:36.500Z,15.83
2018-11-25T19:05:40.659Z,17.37
2018-11-25T19:07:45.825Z,15.10
2018-11-25T19:09:50.079Z,16.97
2018-11-25T19:11:54.137Z,18.80
2018-11-25T19:13:58.175Z,17.30
2018-11-25T19:16:02.368Z,16.90
2018-11-25T19:18:08.391Z,17.53
2018-11-25T19:20:18.506Z,15.00
2018-11-25T19:22:22.657Z,18.43
2018-11-25T19:24:33.088Z,19.90
2018-11-25T19:26:37.079Z,23.00
2018-11-25T19:28:41.104Z,22.47
2018-11-25T19:30:45.997Z,21.82
2018-11-25T19:32:50.552Z,18.52
2018-11-25T19:34:54.632Z,24.50
2018-11-25T19:36:58.811Z,23.27
2018-11-25T19:39:05.566Z,21.63
2018-11-25T19:41:10.225Z,21.50
2018-11-25T19:43:14.374Z,20.73
2018-11-25T19:45:21.173Z,16.50
2018-11-25T19:47:25.352Z,15.50
2018-11-25T19:49:30.243Z,15.07
2018-11-25T19:51:34.349Z,17.10
2018-11-25T19:53:38.518Z,17.77
2018-11-25T19:55:42.858Z,15.17
2018-11-25T19:57:47.786Z,15.57
2018-11-25T19:59:51.899Z,20.75
2018-11-25T20:01:56.017Z,16.12
2018-11-25T20:04:00.055Z,15.33
2018-11-25T20:06:04.208Z,19.70
2018-11-25T20:08:08.642Z,19.77
2018-11-25T20:10:15.686Z,18.73
2018-11-25T20:12:23.825Z,23.57
2018-11-25T20:14:27.924Z,24.57
2018-11-25T20:16:37.488Z,22.57
2018-11-25T20:18:42.450Z,18.87
2018-11-25T20:20:51.592Z,22.25
2018-11-25T20:22:56.381Z,16.32
2018-11-25T20:25:00.406Z,17.32
2018-11-25T20:27:10.886Z,12.90
2018-11-25T20:29:15.074Z,16.63
2018-11-25T20:31:19.199Z,16.10
2018-11-25T20:33:28.476Z,16.97
2018-11-25T20:35:32.641Z,15.87
2018-11-25T20:40:12.344Z,16.07
2018-11-25T20:42:16.431Z,18.23
2018-11-25T20:44:20.603Z,15.67
2018-11-25T20:46:29.970Z,18.37
2018-11-25T20:48:34.015Z,17.40
2018-11-25T20:50:38.075Z,15.23
2018-11-25T20:52:47.619Z,18.60
2018-11-25T20:54:51.636Z,17.50
2018-11-25T20:56:55.728Z,16.03
2018-11-25T20:58:59.786Z,20.40
2018-11-25T21:01:03.784Z,23.47
2018-11-25T21:03:10.332Z,22.90
2018-11-25T21:05:15.436Z,23.23
2018-11-25T21:07:19.443Z,21.27
2018-11-25T21:09:23.501Z,29.30
2018-11-25T21:11:27.656Z,18.27
2018-11-25T21:13:31.689Z,17.67
2018-11-25T21:15:35.764Z,18.80
2018-11-25T21:17:40.147Z,17.27
2018-11-25T21:19:44.181Z,16.70
2018-11-25T21:21:48.191Z,18.40
2018-11-25T21:23:52.269Z,18.87
2018-11-25T21:25:56.314Z,17.03
2018-11-25T21:28:00.544Z,16.90
2018-11-25T21:30:08.548Z,16.07
2018-11-25T21:32:12.519Z,15.17
2018-11-25T21:34:16.608Z,17.90
2018-11-25T21:36:20.647Z,16.00
2018-11-25T21:38:24.675Z,16.27
2018-11-25T21:40:28.719Z,17.43
2018-11-25T21:42:32.889Z,15.27
2018-11-25T21:44:36.908Z,17.20
2018-11-25T21:46:40.952Z,24.60
2018-11-25T21:48:45.044Z,19.67
2018-11-25T21:50:49.069Z,22.87
2018-11-25T21:52:53.175Z,27.10
2018-11-25T21:54:57.197Z,31.82
2018-11-25T21:57:01.257Z,30.65
2018-11-25T21:59:05.513Z,24.02
2018-11-25T22:01:09.648Z,21.77
2018-11-25T22:03:13.748Z,22.13
2018-11-25T22:05:18.055Z,20.43
2018-11-25T22:07:22.058Z,19.60
2018-11-25T22:09:26.137Z,16.63
2018-11-25T22:11:30.170Z,14.83
2018-11-25T22:13:34.307Z,15.57
2018-11-25T22:15:38.291Z,13.43
2018-11-25T22:17:42.466Z,16.27
2018-11-25T22:19:46.577Z,14.40
2018-11-25T22:21:50.715Z,15.67
2018-11-25T22:23:54.796Z,13.28
2018-11-25T22:25:59.025Z,13.28
2018-11-25T22:28:03.055Z,14.80
2018-11-25T22:30:10.956Z,16.93
2018-11-25T22:32:14.967Z,15.30
2018-11-25T22:34:19.044Z,14.87
2018-11-25T22:36:23.160Z,21.67
2018-11-25T22:38:27.190Z,20.47
2018-11-25T22:40:31.203Z,22.13
2018-11-25T22:42:35.291Z,20.30
2018-11-25T22:44:39.374Z,16.13
2018-11-25T22:46:43.396Z,15.53
2018-11-25T22:48:47.427Z,17.90
2018-11-25T22:50:51.428Z,16.25
2018-11-25T22:52:55.607Z,18.12
2018-11-25T22:54:59.614Z,17.75
2018-11-25T22:57:03.631Z,16.35
2018-11-25T22:59:07.804Z,19.17
2018-11-25T23:01:11.843Z,21.53
2018-11-25T23:03:15.871Z,27.57
2018-11-25T23:05:37.007Z,18.07
2018-11-25T23:07:41.013Z,26.17
2018-11-25T23:09:45.109Z,31.90
2018-11-25T23:11:49.108Z,30.20
2018-11-25T23:13:53.205Z,28.20
2018-11-25T23:15:57.204Z,25.55
2018-11-25T23:18:01.318Z,26.85
2018-11-25T23:20:06.976Z,27.40
2018-11-25T23:22:10.963Z,27.90
2018-11-25T23:24:14.992Z,30.37
2018-11-25T23:26:19.024Z,28.23
2018-11-25T23:28:23.011Z,27.10
2018-11-25T23:30:27.060Z,27.13
2018-11-25T23:32:31.068Z,27.67
2018-11-25T23:34:35.092Z,27.83
2018-11-25T23:36:39.128Z,28.10
2018-11-25T23:38:43.151Z,27.47
2018-11-25T23:40:47.160Z,27.80
2018-11-25T23:42:51.191Z,29.60
2018-11-25T23:44:55.256Z,28.33
2018-11-25T23:46:59.284Z,27.67
2018-11-25T23:49:03.363Z,27.95
2018-11-25T23:51:07.431Z,23.13
2018-11-25T23:53:13.632Z,28.03
2018-11-25T23:55:17.714Z,27.43
2018-11-25T23:57:25.894Z,27.17
2018-11-25T23:59:29.908Z,27.60
